Time;durP1;ratioP1;P1;durP2;ratioP2;P2;SDS_P1;SDS_P2;PMS_P1;PMS_P2;Temp;Humidity;BMP_temperature;BMP_pressure;BME280_temperature;BME280_humidity;BME280_pressure;Samples;Min_cycle;Max_cycle;Signal;HPM_P1;HPM_P2
2021/06/25 00:02:19;;;;;;;36.27;32.53;;;16.20;99.90;;;;;;5120956;28;20543;-74
2021/06/25 00:04:47;;;;;;;41.23;35.83;;;16.20;99.90;;;;;;5117243;28;20467;-75
2021/06/25 00:07:15;;;;;;;38.40;34.60;;;16.20;99.90;;;;;;5115802;28;20548;-73
2021/06/25 00:09:42;;;;;;;42.07;35.33;;;16.10;99.90;;;;;;5114915;28;20472;-74
2021/06/25 00:12:11;;;;;;;39.20;35.13;;;16.10;99.90;;;;;;5116363;28;20457;-73
2021/06/25 00:14:39;;;;;;;42.97;35.37;;;16.00;99.90;;;;;;5120549;28;20540;-75
2021/06/25 00:17:06;;;;;;;37.43;33.53;;;16.00;99.90;;;;;;5114563;28;20626;-74
2021/06/25 00:19:33;;;;;;;40.77;36.63;;;15.90;99.90;;;;;;5123210;27;20972;-75
2021/06/25 00:22:01;;;;;;;38.40;34.40;;;15.80;99.90;;;;;;5119598;27;20476;-74
2021/06/25 00:24:29;;;;;;;39.57;35.63;;;15.80;99.90;;;;;;5117536;27;20552;-76
2021/06/25 00:26:56;;;;;;;37.93;34.20;;;15.90;99.90;;;;;;5125340;27;20453;-74
2021/06/25 00:29:23;;;;;;;39.53;35.53;;;15.80;99.90;;;;;;5124383;27;20451;-76
2021/06/25 00:31:51;;;;;;;38.33;33.00;;;15.80;99.90;;;;;;5120088;27;20453;-76
2021/06/25 00:34:18;;;;;;;39.63;35.70;;;15.70;99.90;;;;;;5120771;27;20546;-73
2021/06/25 00:36:45;;;;;;;41.53;37.30;;;15.70;99.90;;;;;;5115449;27;20840;-75
2021/06/25 00:39:13;;;;;;;46.20;36.67;;;15.70;99.90;;;;;;5136226;27;20472;-77
2021/06/25 00:41:42;;;;;;;39.40;35.10;;;15.70;99.90;;;;;;5128216;27;20467;-75
2021/06/25 00:44:16;;;;;;;41.33;37.17;;;15.60;99.90;;;;;;5120933;27;20555;-74
2021/06/25 00:46:43;;;;;;;39.30;35.10;;;15.60;99.90;;;;;;5115814;27;20816;-76
2021/06/25 00:49:11;;;;;;;39.13;35.17;;;15.60;99.90;;;;;;5125361;27;20461;-75
2021/06/25 00:51:39;;;;;;;38.43;33.83;;;15.60;99.90;;;;;;5120176;27;20488;-76
2021/06/25 00:54:08;;;;;;;40.53;36.23;;;15.60;99.90;;;;;;5122396;27;20456;-75
2021/06/25 00:56:36;;;;;;;45.97;36.97;;;15.60;99.90;;;;;;5120813;27;20463;-73
2021/06/25 00:59:05;;;;;;;43.40;37.20;;;15.50;99.90;;;;;;5121404;27;20854;-76
2021/06/25 01:01:32;;;;;;;40.30;36.30;;;15.50;99.90;;;;;;5118386;27;20599;-75
2021/06/25 01:04:00;;;;;;;39.80;36.03;;;15.40;99.90;;;;;;5124375;27;20468;-75
2021/06/25 01:06:28;;;;;;;40.17;36.07;;;15.40;99.90;;;;;;5121969;27;20900;-75
2021/06/25 01:08:56;;;;;;;41.67;37.50;;;15.30;99.90;;;;;;5122644;27;20452;-74
2021/06/25 01:11:23;;;;;;;41.00;36.80;;;15.20;99.90;;;;;;5120092;27;20544;-74
2021/06/25 01:13:50;;;;;;;40.97;36.57;;;15.10;99.90;;;;;;5123533;27;20463;-75
2021/06/25 01:16:18;;;;;;;44.80;38.23;;;14.90;99.90;;;;;;5124300;27;21403;-77
2021/06/25 01:18:45;;;;;;;42.13;36.30;;;14.80;99.90;;;;;;5121445;27;20448;-75
2021/06/25 01:21:14;;;;;;;38.73;34.97;;;14.70;99.90;;;;;;5118114;27;20552;-76
2021/06/25 01:23:42;;;;;;;40.47;36.47;;;14.60;99.90;;;;;;5122493;27;20463;-73
2021/06/25 01:26:09;;;;;;;40.53;36.43;;;14.40;99.90;;;;;;5113316;27;21047;-74
2021/06/25 01:28:37;;;;;;;41.53;37.30;;;14.30;99.90;;;;;;5121063;27;20947;-73
2021/06/25 01:31:06;;;;;;;42.27;37.47;;;14.10;99.90;;;;;;5119900;27;21006;-75
2021/06/25 01:33:34;;;;;;;42.83;38.30;;;14.00;99.90;;;;;;5122255;27;20458;-74
2021/06/25 01:36:01;;;;;;;47.80;38.67;;;14.00;99.90;;;;;;5120685;27;20457;-76
2021/06/25 01:38:30;;;;;;;53.57;39.40;;;13.80;99.90;;;;;;5116955;27;20483;-74
2021/06/25 01:40:57;;;;;;;41.50;37.20;;;13.70;99.90;;;;;;5115444;27;20955;-74
2021/06/25 01:43:27;;;;;;;43.60;39.20;;;13.70;99.90;;;;;;5116057;27;20449;-73
2021/06/25 01:45:55;;;;;;;45.57;40.60;;;13.60;99.90;;;;;;5120595;27;20553;-74
2021/06/25 01:48:22;;;;;;;42.77;37.93;;;13.50;99.90;;;;;;5123602;27;20533;-75
2021/06/25 01:50:49;;;;;;;43.37;35.77;;;13.40;99.90;;;;;;5118873;27;20745;-75
2021/06/25 01:53:17;;;;;;;42.03;37.57;;;13.30;99.90;;;;;;5118554;27;20463;-75
2021/06/25 01:55:49;;;;;;;41.77;37.30;;;13.30;99.90;;;;;;5119258;27;20570;-76
2021/06/25 01:58:19;;;;;;;59.53;38.13;;;13.20;99.90;;;;;;5115618;27;20464;-75
2021/06/25 02:00:50;;;;;;;48.57;39.97;;;13.10;99.90;;;;;;5125961;27;21001;-74
2021/06/25 02:03:17;;;;;;;42.57;38.13;;;13.10;99.90;;;;;;5124773;27;20550;-74
2021/06/25 02:05:44;;;;;;;40.53;36.47;;;13.10;99.90;;;;;;5117178;27;21021;-73
2021/06/25 02:08:10;;;;;;;49.10;40.43;;;13.00;99.90;;;;;;5113198;27;20458;-76
2021/06/25 02:10:37;;;;;;;42.37;36.40;;;13.00;99.90;;;;;;5117092;27;20505;-75
2021/06/25 02:13:06;;;;;;;44.97;40.07;;;12.90;99.90;;;;;;5120071;27;20542;-72
2021/06/25 02:15:33;;;;;;;51.03;41.00;;;12.90;99.90;;;;;;5114269;27;20666;-75
2021/06/25 02:18:01;;;;;;;48.97;40.47;;;12.90;99.90;;;;;;5118007;27;21104;-73
2021/06/25 02:20:27;;;;;;;50.00;42.27;;;12.80;99.90;;;;;;5124622;27;21062;-73
2021/06/25 02:22:54;;;;;;;51.70;42.00;;;12.80;99.90;;;;;;5113219;27;20459;-75
2021/06/25 02:25:21;;;;;;;47.93;41.23;;;12.90;99.90;;;;;;5113005;27;20464;-73
2021/06/25 02:27:48;;;;;;;59.63;43.83;;;12.80;99.90;;;;;;5119920;27;20469;-74
2021/06/25 02:30:18;;;;;;;47.27;42.37;;;12.80;99.90;;;;;;5118420;27;20896;-75
2021/06/25 02:32:45;;;;;;;47.90;42.90;;;12.90;99.90;;;;;;5117686;27;20467;-75
2021/06/25 02:35:14;;;;;;;45.40;40.40;;;12.90;99.90;;;;;;5117832;27;20464;-74
2021/06/25 02:37:41;;;;;;;46.53;40.33;;;12.80;99.90;;;;;;5121844;27;20476;-75
2021/06/25 02:40:09;;;;;;;49.80;42.40;;;12.70;99.90;;;;;;5123694;27;20595;-75
2021/06/25 02:42:36;;;;;;;47.77;42.30;;;12.70;99.90;;;;;;5113499;27;20509;-75
2021/06/25 02:45:06;;;;;;;49.43;42.20;;;12.70;99.90;;;;;;5118387;27;20468;-76
2021/06/25 02:47:34;;;;;;;47.70;42.27;;;12.70;99.90;;;;;;5124520;27;20480;-75
2021/06/25 02:50:02;;;;;;;49.80;41.47;;;12.70;99.90;;;;;;5118155;27;20463;-75
2021/06/25 02:52:29;;;;;;;50.90;43.63;;;12.70;99.90;;;;;;5119287;27;21001;-75
2021/06/25 02:54:55;;;;;;;51.47;43.00;;;12.70;99.90;;;;;;5118785;27;20486;-73
2021/06/25 02:57:23;;;;;;;50.07;41.70;;;12.70;99.90;;;;;;5118461;27;20539;-74
2021/06/25 02:59:51;;;;;;;46.57;41.57;;;12.80;99.90;;;;;;5117511;27;20543;-76
2021/06/25 03:02:18;;;;;;;50.07;41.33;;;12.80;99.90;;;;;;5116936;27;20456;-76
2021/06/25 03:04:47;;;;;;;42.23;37.60;;;12.70;99.90;;;;;;5119466;27;20528;-74
2021/06/25 03:07:13;;;;;;;47.53;42.60;;;12.50;99.90;;;;;;5114505;27;20471;-74
2021/06/25 03:09:40;;;;;;;48.00;42.90;;;12.40;99.90;;;;;;5120226;27;20457;-75
2021/06/25 03:12:09;;;;;;;52.20;42.30;;;12.50;99.90;;;;;;5120601;27;20489;-75
2021/06/25 03:14:35;;;;;;;45.80;39.47;;;12.50;99.90;;;;;;5119263;27;20810;-73
2021/06/25 03:17:03;;;;;;;51.80;43.73;;;12.50;99.90;;;;;;5115156;27;20457;-74
2021/06/25 03:19:29;;;;;;;44.40;36.90;;;12.40;99.90;;;;;;5120867;27;20456;-73
2021/06/25 03:21:58;;;;;;;48.13;40.47;;;12.30;99.90;;;;;;5114477;27;20991;-73
2021/06/25 03:24:25;;;;;;;45.57;40.73;;;12.20;99.90;;;;;;5110442;28;20976;-73
2021/06/25 03:26:52;;;;;;;46.77;41.53;;;12.20;99.90;;;;;;5124059;28;20453;-74
2021/06/25 03:29:18;;;;;;;50.07;43.10;;;12.30;99.90;;;;;;5118008;28;20466;-75
2021/06/25 03:31:46;;;;;;;47.80;42.53;;;12.20;99.90;;;;;;5113465;28;20487;-73
2021/06/25 03:34:13;;;;;;;51.77;44.73;;;12.20;99.90;;;;;;5120820;28;20549;-74
2021/06/25 03:36:40;;;;;;;55.00;44.03;;;12.30;99.90;;;;;;5118941;28;20457;-73
2021/06/25 03:39:08;;;;;;;63.77;45.50;;;12.30;99.90;;;;;;5125153;27;20495;-73
2021/06/25 03:41:35;;;;;;;56.50;45.60;;;12.30;99.90;;;;;;5126231;28;20459;-73
2021/06/25 03:44:03;;;;;;;50.00;43.20;;;12.30;99.90;;;;;;5118186;28;20466;-74
2021/06/25 03:46:30;;;;;;;56.70;46.67;;;12.40;99.90;;;;;;5112569;28;20464;-74
2021/06/25 03:48:57;;;;;;;50.70;43.60;;;12.40;99.90;;;;;;5117256;28;20500;-73
2021/06/25 03:51:24;;;;;;;57.03;45.60;;;12.30;99.90;;;;;;5117889;28;20614;-76
2021/06/25 03:53:51;;;;;;;52.97;43.03;;;12.40;99.90;;;;;;5122390;27;20462;-75
2021/06/25 03:56:20;;;;;;;55.33;43.37;;;12.50;99.90;;;;;;5122599;27;20466;-74
2021/06/25 03:58:49;;;;;;;53.47;43.17;;;12.50;99.90;;;;;;5119157;27;20991;-73
2021/06/25 04:01:17;;;;;;;52.63;44.30;;;12.60;99.90;;;;;;5122590;27;20465;-73
2021/06/25 04:03:44;;;;;;;56.67;44.07;;;12.70;99.90;;;;;;5119314;27;20470;-73
2021/06/25 04:06:12;;;;;;;50.07;43.70;;;12.70;99.90;;;;;;5121050;27;20981;-72
2021/06/25 04:08:39;;;;;;;54.60;43.60;;;12.70;99.90;;;;;;5120109;27;20461;-73
2021/06/25 04:11:06;;;;;;;54.60;45.20;;;12.60;99.90;;;;;;5122262;27;20535;-73
2021/06/25 04:13:36;;;;;;;59.10;45.30;;;12.60;99.90;;;;;;5115346;27;20961;-73
2021/06/25 04:16:03;;;;;;;55.77;46.30;;;12.50;99.90;;;;;;5120740;27;20556;-73
2021/06/25 04:18:31;;;;;;;64.53;44.73;;;12.40;99.90;;;;;;5121950;27;20463;-74
2021/06/25 04:20:59;;;;;;;59.33;43.97;;;12.60;99.90;;;;;;5127995;27;20489;-73
2021/06/25 04:23:27;;;;;;;64.37;48.13;;;12.60;99.90;;;;;;5122602;27;20823;-77
2021/06/25 04:25:54;;;;;;;58.97;45.30;;;12.60;99.90;;;;;;5118482;27;20467;-77
2021/06/25 04:28:22;;;;;;;56.10;45.70;;;12.60;99.90;;;;;;5124317;27;20555;-73
2021/06/25 04:30:51;;;;;;;58.20;45.40;;;12.60;99.90;;;;;;5121527;27;20456;-73
2021/06/25 04:33:18;;;;;;;58.83;46.67;;;12.50;99.90;;;;;;5120332;27;20843;-73
2021/06/25 04:35:48;;;;;;;62.90;49.47;;;12.60;99.90;;;;;;5123246;27;20466;-74
2021/06/25 04:38:15;;;;;;;69.50;51.27;;;12.60;99.90;;;;;;5126817;27;20473;-73
2021/06/25 04:40:44;;;;;;;61.60;46.67;;;12.70;99.90;;;;;;5124890;27;20459;-77
2021/06/25 04:43:13;;;;;;;74.27;52.13;;;12.80;99.90;;;;;;5118496;27;20555;-73
2021/06/25 04:45:40;;;;;;;70.53;50.37;;;13.00;99.90;;;;;;5121323;27;20468;-73
2021/06/25 04:48:12;;;;;;;71.50;53.60;;;13.10;99.90;;;;;;5124171;27;20463;-74
2021/06/25 04:50:40;;;;;;;80.03;54.07;;;13.20;99.90;;;;;;5124744;27;20460;-73
2021/06/25 04:53:08;;;;;;;94.53;55.13;;;13.50;99.90;;;;;;5117401;27;20523;-73
2021/06/25 04:55:40;;;;;;;77.00;52.63;;;13.60;99.90;;;;;;5115498;27;20545;-72
2021/06/25 04:58:09;;;;;;;74.53;52.47;;;13.80;99.90;;;;;;5115201;27;20522;-75
2021/06/25 05:00:36;;;;;;;77.20;53.57;;;13.90;99.90;;;;;;5125080;27;20458;-76
2021/06/25 05:03:03;;;;;;;77.80;54.33;;;14.00;99.90;;;;;;5125879;27;20641;-74
2021/06/25 05:05:31;;;;;;;77.50;54.40;;;14.00;99.90;;;;;;5121489;27;20460;-77
2021/06/25 05:07:58;;;;;;;72.80;55.00;;;14.10;99.90;;;;;;5118398;27;20463;-77
2021/06/25 05:10:25;;;;;;;76.30;54.70;;;14.20;99.90;;;;;;5120945;27;20533;-75
2021/06/25 05:12:52;;;;;;;77.50;57.40;;;14.30;99.90;;;;;;5121946;27;20519;-77
2021/06/25 05:15:20;;;;;;;69.73;52.53;;;14.40;99.90;;;;;;5123201;27;20464;-77
2021/06/25 05:17:48;;;;;;;77.93;54.57;;;14.60;99.90;;;;;;5117511;27;20456;-76
2021/06/25 05:20:16;;;;;;;83.73;56.97;;;14.60;99.90;;;;;;5124836;27;20903;-75
2021/06/25 05:22:45;;;;;;;76.63;54.60;;;14.70;99.90;;;;;;5120378;27;20536;-75
2021/06/25 05:25:14;;;;;;;86.00;56.27;;;14.80;99.90;;;;;;5119368;27;20816;-76
2021/06/25 05:27:41;;;;;;;80.33;57.43;;;15.00;99.90;;;;;;5115656;27;20453;-75
2021/06/25 05:30:10;;;;;;;78.07;56.20;;;15.00;99.90;;;;;;5114779;27;20479;-76
2021/06/25 05:32:37;;;;;;;76.60;57.63;;;15.10;99.90;;;;;;5124151;27;20496;-73
2021/06/25 05:35:04;;;;;;;73.43;54.53;;;15.10;99.90;;;;;;5122489;27;20452;-75
2021/06/25 05:37:31;;;;;;;79.80;59.40;;;15.20;99.90;;;;;;5111759;27;20873;-77
2021/06/25 05:40:00;;;;;;;83.53;54.97;;;15.30;99.90;;;;;;5119038;27;20449;-75
2021/06/25 05:42:27;;;;;;;74.23;53.80;;;15.30;99.90;;;;;;5111507;27;20461;-74
2021/06/25 05:44:54;;;;;;;70.50;56.27;;;15.40;99.90;;;;;;5118398;27;20849;-75
2021/06/25 05:47:21;;;;;;;69.17;51.40;;;15.60;99.90;;;;;;5112764;27;20556;-75
2021/06/25 05:49:49;;;;;;;67.67;54.00;;;15.70;99.90;;;;;;5117692;27;20551;-73
2021/06/25 05:52:16;;;;;;;62.67;51.40;;;15.80;99.90;;;;;;5104891;27;20860;-75
2021/06/25 05:54:43;;;;;;;58.63;48.77;;;15.90;99.90;;;;;;5107830;27;20480;-74
2021/06/25 05:57:11;;;;;;;57.27;47.00;;;16.00;99.90;;;;;;5110776;27;20468;-73
2021/06/25 05:59:38;;;;;;;56.07;46.47;;;16.00;99.90;;;;;;5106867;27;20467;-74
2021/06/25 06:02:07;;;;;;;52.90;46.20;;;16.10;99.90;;;;;;5111230;27;20479;-76
2021/06/25 06:04:34;;;;;;;53.37;46.53;;;16.30;99.90;;;;;;5116270;27;20461;-74
2021/06/25 06:07:02;;;;;;;59.67;46.27;;;16.40;99.90;;;;;;5119177;27;20487;-76
2021/06/25 06:09:29;;;;;;;58.93;46.70;;;16.50;99.90;;;;;;5115844;27;20453;-74
2021/06/25 06:11:56;;;;;;;52.40;45.27;;;16.50;99.90;;;;;;5117694;27;20476;-76
2021/06/25 06:14:24;;;;;;;50.13;43.57;;;16.50;99.90;;;;;;5117599;27;20911;-76
2021/06/25 06:16:52;;;;;;;48.23;43.13;;;16.60;99.90;;;;;;5113015;27;20451;-74
2021/06/25 06:19:19;;;;;;;46.90;42.03;;;16.70;99.90;;;;;;5123803;27;20488;-76
2021/06/25 06:33:00;;;;;;;42.30;37.77;;;16.90;99.90;;;;;;5119046;27;20536;-74
2021/06/25 06:35:26;;;;;;;42.80;38.40;;;17.20;99.90;;;;;;5114461;27;20542;-76
2021/06/25 06:38:00;;;;;;;41.57;37.43;;;17.40;99.90;;;;;;5108556;27;20979;-76
2021/06/25 06:40:28;;;;;;;42.37;38.20;;;17.50;99.90;;;;;;5112164;27;20460;-76
2021/06/25 06:42:55;;;;;;;42.33;37.93;;;17.60;99.90;;;;;;5121227;27;20458;-76
2021/06/25 06:45:24;;;;;;;41.90;37.73;;;17.60;99.90;;;;;;5114490;27;21221;-74
2021/06/25 06:47:51;;;;;;;43.97;39.30;;;17.70;99.90;;;;;;5112556;27;20901;-75
2021/06/25 06:50:18;;;;;;;42.73;38.00;;;17.90;99.90;;;;;;5109462;27;20469;-75
2021/06/25 06:52:47;;;;;;;42.03;37.80;;;17.80;99.90;;;;;;5106662;27;20492;-76
2021/06/25 06:55:16;;;;;;;40.10;35.90;;;17.90;99.90;;;;;;5116885;27;20494;-76
2021/06/25 06:57:44;;;;;;;43.27;38.83;;;18.00;99.90;;;;;;5114754;27;20460;-75
2021/06/25 07:00:11;;;;;;;42.27;37.97;;;17.80;99.90;;;;;;5113816;27;20959;-76
2021/06/25 07:02:41;;;;;;;40.57;36.40;;;17.80;99.90;;;;;;5108319;27;20905;-75
2021/06/25 07:05:10;;;;;;;40.87;36.80;;;18.00;99.90;;;;;;5117926;27;20905;-74
2021/06/25 07:07:37;;;;;;;36.70;33.37;;;18.00;99.90;;;;;;5114350;27;20464;-76
2021/06/25 07:10:07;;;;;;;36.57;32.67;;;17.90;99.90;;;;;;5111964;27;21043;-75
2021/06/25 07:12:34;;;;;;;37.77;33.67;;;18.00;99.90;;;;;;5109162;27;20578;-75
2021/06/25 07:15:01;;;;;;;36.90;33.33;;;18.00;99.90;;;;;;5111036;27;20543;-78
2021/06/25 07:17:28;;;;;;;36.37;32.30;;;17.90;99.90;;;;;;5109971;27;20823;-74
2021/06/25 07:19:59;;;;;;;33.97;29.67;;;18.10;99.90;;;;;;5114823;27;20840;-75
2021/06/25 07:22:26;;;;;;;34.23;31.10;;;18.30;99.90;;;;;;5116025;27;20510;-77
2021/06/25 07:24:53;;;;;;;32.47;29.00;;;18.20;99.90;;;;;;5113056;28;21177;-78
2021/06/25 07:27:20;;;;;;;33.00;29.63;;;18.40;99.90;;;;;;5109435;27;20464;-75
2021/06/25 07:29:47;;;;;;;33.80;30.67;;;18.60;99.90;;;;;;5115417;28;20468;-77
2021/06/25 07:32:14;;;;;;;34.10;29.27;;;18.70;99.90;;;;;;5116739;28;20495;-75
2021/06/25 07:34:42;;;;;;;31.50;28.40;;;19.00;99.90;;;;;;5112044;28;20907;-76
2021/06/25 07:37:10;;;;;;;30.00;27.20;;;19.30;99.90;;;;;;5112342;28;20460;-75
2021/06/25 07:39:37;;;;;;;30.63;27.97;;;19.30;99.90;;;;;;5112103;28;20455;-76
2021/06/25 07:42:04;;;;;;;33.33;27.13;;;19.10;99.90;;;;;;5106479;28;20475;-77
2021/06/25 07:44:32;;;;;;;27.90;25.47;;;19.30;99.90;;;;;;5114682;28;20482;-76
2021/06/25 07:46:58;;;;;;;30.30;27.93;;;19.40;99.90;;;;;;5113890;28;20459;-74
2021/06/25 07:49:26;;;;;;;30.47;27.60;;;19.50;99.90;;;;;;5105975;28;20475;-77
2021/06/25 07:51:52;;;;;;;30.37;27.83;;;19.90;99.90;;;;;;5115418;28;20489;-74
2021/06/25 07:54:21;;;;;;;28.83;26.40;;;20.20;99.90;;;;;;5121710;27;20487;-76
2021/06/25 07:56:49;;;;;;;30.43;27.67;;;20.30;99.90;;;;;;5113282;27;20871;-75
2021/06/25 07:59:16;;;;;;;28.57;26.07;;;20.00;99.90;;;;;;5112415;28;20460;-75
2021/06/25 08:01:42;;;;;;;30.03;27.40;;;20.10;99.90;;;;;;5113400;28;20460;-76
2021/06/25 08:04:09;;;;;;;30.83;28.10;;;20.60;99.90;;;;;;5109229;28;20828;-75
2021/06/25 08:06:36;;;;;;;28.53;26.33;;;21.10;99.90;;;;;;5116641;28;20488;-77
2021/06/25 08:09:06;;;;;;;29.00;26.70;;;21.40;99.90;;;;;;5116709;28;20456;-78
2021/06/25 08:11:36;;;;;;;28.67;26.23;;;21.90;99.90;;;;;;5110321;28;20994;-75
2021/06/25 08:14:06;;;;;;;27.37;25.17;;;21.90;99.90;;;;;;5114939;28;20489;-76
2021/06/25 08:16:33;;;;;;;25.90;23.83;;;22.00;99.90;;;;;;5113491;28;20464;-75
2021/06/25 08:19:00;;;;;;;27.30;25.13;;;22.20;99.90;;;;;;5108537;28;20476;-75
2021/06/25 08:21:30;;;;;;;26.50;24.50;;;22.20;99.90;;;;;;5118396;28;20484;-75
2021/06/25 08:23:58;;;;;;;26.33;23.87;;;22.60;99.90;;;;;;5112706;28;20504;-78
2021/06/25 08:26:25;;;;;;;25.07;22.97;;;23.10;99.90;;;;;;5105292;28;20462;-75
2021/06/25 08:28:54;;;;;;;25.10;22.90;;;23.10;99.90;;;;;;5110643;28;20453;-74
2021/06/25 08:31:20;;;;;;;24.77;22.77;;;23.10;99.90;;;;;;5112279;28;20456;-75
2021/06/25 08:33:47;;;;;;;26.50;24.60;;;22.70;99.90;;;;;;5106377;28;20518;-76
2021/06/25 08:36:14;;;;;;;25.73;23.53;;;22.80;99.90;;;;;;5104765;28;20461;-75
2021/06/25 08:38:41;;;;;;;23.90;21.87;;;22.70;99.90;;;;;;5111966;27;20565;-75
2021/06/25 08:41:08;;;;;;;25.90;23.70;;;22.70;99.90;;;;;;5116546;27;20884;-75
2021/06/25 08:43:35;;;;;;;23.37;21.67;;;23.00;99.90;;;;;;5114686;27;20452;-77
2021/06/25 08:46:04;;;;;;;24.70;22.80;;;23.30;99.90;;;;;;5113999;27;20971;-76
2021/06/25 08:48:34;;;;;;;25.27;22.93;;;23.50;99.90;;;;;;5118063;27;20452;-73
2021/06/25 08:51:01;;;;;;;25.47;23.23;;;23.40;99.90;;;;;;5114830;27;20811;-74
2021/06/25 08:53:28;;;;;;;23.77;22.13;;;23.60;99.90;;;;;;5118419;27;20498;-72
2021/06/25 08:55:55;;;;;;;25.37;23.37;;;23.80;99.90;;;;;;5112593;27;20483;-73
2021/06/25 08:58:23;;;;;;;25.20;22.87;;;24.20;99.90;;;;;;5118368;27;20828;-73
2021/06/25 09:00:52;;;;;;;25.80;23.80;;;24.40;99.20;;;;;;5112073;27;20461;-74
2021/06/25 09:03:24;;;;;;;24.47;22.50;;;24.50;99.30;;;;;;5113190;27;20463;-77
2021/06/25 09:05:51;;;;;;;24.23;22.47;;;24.50;99.00;;;;;;5115171;27;20461;-72
2021/06/25 09:08:26;;;;;;;24.07;22.40;;;24.20;98.10;;;;;;5121827;27;20457;-75
2021/06/25 09:10:56;;;;;;;26.23;24.10;;;24.30;98.00;;;;;;5117589;27;20459;-76
2021/06/25 09:13:32;;;;;;;25.40;23.40;;;24.40;97.90;;;;;;5111335;27;20541;-73
2021/06/25 09:15:59;;;;;;;25.00;22.80;;;25.00;97.80;;;;;;5116119;27;20459;-73
2021/06/25 09:18:28;;;;;;;24.30;22.70;;;25.00;97.00;;;;;;5112036;27;20471;-73
2021/06/25 09:20:55;;;;;;;24.20;22.30;;;25.00;97.10;;;;;;5116838;27;20534;-73
2021/06/25 09:23:36;;;;;;;25.97;23.83;;;24.60;97.80;;;;;;5114897;27;20462;-73
2021/06/25 09:26:06;;;;;;;25.10;23.20;;;23.90;96.50;;;;;;5123117;27;20484;-72
2021/06/25 09:28:36;;;;;;;26.63;24.30;;;24.00;97.20;;;;;;5115813;27;20464;-72
2021/06/25 09:31:12;;;;;;;25.17;23.30;;;24.50;96.20;;;;;;5116209;27;20471;-72
2021/06/25 09:33:44;;;;;;;25.63;23.40;;;25.00;97.20;;;;;;5113110;27;20484;-73
2021/06/25 09:36:22;;;;;;;26.47;24.20;;;25.60;95.50;;;;;;5116890;27;20456;-73
2021/06/25 09:38:57;;;;;;;24.60;22.70;;;25.70;95.30;;;;;;5116294;27;20695;-73
2021/06/25 09:41:24;;;;;;;24.53;22.60;;;25.70;95.90;;;;;;5110171;27;21389;-74
2021/06/25 09:43:55;;;;;;;24.87;22.80;;;26.00;95.70;;;;;;5118922;27;20465;-73
2021/06/25 09:46:29;;;;;;;24.07;22.27;;;26.50;93.70;;;;;;5113840;27;20464;-73
2021/06/25 09:48:59;;;;;;;22.80;21.30;;;26.30;94.80;;;;;;5111220;27;20465;-75
2021/06/25 09:51:27;;;;;;;24.43;22.63;;;26.30;92.50;;;;;;5114787;27;20487;-73
2021/06/25 09:54:08;;;;;;;24.57;22.07;;;26.30;91.50;;;;;;5110163;27;20591;-73
2021/06/25 09:56:40;;;;;;;24.90;22.60;;;26.50;92.70;;;;;;5122071;27;20463;-73
2021/06/25 09:59:34;;;;;;;24.83;22.73;;;26.50;92.00;;;;;;5115037;27;20875;-72
2021/06/25 10:02:24;;;;;;;25.17;23.00;;;25.90;92.20;;;;;;5114015;27;20493;-74
2021/06/25 10:04:54;;;;;;;24.43;22.63;;;26.40;90.70;;;;;;5115140;27;21015;-73
2021/06/25 10:07:22;;;;;;;26.20;24.30;;;25.70;90.50;;;;;;5118246;27;21014;-73
2021/06/25 10:09:52;;;;;;;24.00;22.40;;;25.90;91.70;;;;;;5109751;27;20449;-73
2021/06/25 10:12:20;;;;;;;23.53;21.43;;;26.30;92.30;;;;;;5111292;27;20460;-73
2021/06/25 10:14:49;;;;;;;23.50;21.67;;;26.80;92.20;;;;;;5118287;27;20491;-73
2021/06/25 10:17:17;;;;;;;27.87;25.37;;;26.20;92.20;;;;;;5119105;27;20768;-72
2021/06/25 10:19:46;;;;;;;26.40;24.17;;;26.00;92.30;;;;;;5115485;27;20675;-73
2021/06/25 10:22:16;;;;;;;25.77;23.70;;;26.10;92.80;;;;;;5118041;27;20567;-73
2021/06/25 10:24:47;;;;;;;27.77;25.10;;;26.20;91.60;;;;;;5117303;27;20489;-72
2021/06/25 10:27:17;;;;;;;26.97;24.07;;;25.40;91.90;;;;;;5111224;27;20966;-73
2021/06/25 10:29:44;;;;;;;26.40;24.20;;;25.30;92.70;;;;;;5117689;27;20539;-75
2021/06/25 10:32:11;;;;;;;26.57;24.37;;;25.60;92.20;;;;;;5112030;27;20457;-73
2021/06/25 10:34:39;;;;;;;25.00;23.00;;;25.50;92.40;;;;;;5112783;27;20488;-73
2021/06/25 10:37:09;;;;;;;24.97;22.97;;;25.70;93.30;;;;;;5113909;27;20701;-73
2021/06/25 10:39:37;;;;;;;25.37;23.67;;;26.30;91.90;;;;;;5119197;27;20499;-73
2021/06/25 10:42:09;;;;;;;27.40;24.77;;;26.50;91.90;;;;;;5112710;27;20460;-74
2021/06/25 10:44:40;;;;;;;26.27;24.27;;;25.70;92.30;;;;;;5117550;27;20950;-74
2021/06/25 10:47:14;;;;;;;26.07;24.07;;;25.50;92.80;;;;;;5111872;27;20460;-73
2021/06/25 10:50:30;;;;;;;26.37;24.27;;;26.20;91.80;;;;;;5117870;27;21155;-72
2021/06/25 10:53:13;;;;;;;25.60;23.60;;;26.70;92.20;;;;;;5119064;27;20540;-73
2021/06/25 10:55:46;;;;;;;24.40;22.50;;;26.70;91.80;;;;;;5116401;27;20496;-73
2021/06/25 10:58:20;;;;;;;28.70;25.80;;;26.70;92.70;;;;;;5115378;27;20537;-73
2021/06/25 11:00:54;;;;;;;26.87;24.73;;;27.20;90.60;;;;;;5118779;27;20461;-74
2021/06/25 11:03:45;;;;;;;24.00;22.13;;;27.60;90.30;;;;;;5116448;27;20888;-74
2021/06/25 11:06:52;;;;;;;25.73;23.73;;;27.50;90.90;;;;;;5112879;27;20479;-75
2021/06/25 11:09:19;;;;;;;25.23;23.43;;;27.90;89.80;;;;;;5118354;27;20457;-72
2021/06/25 11:11:48;;;;;;;25.03;22.70;;;27.00;89.50;;;;;;5113439;27;20542;-74
2021/06/25 11:14:28;;;;;;;23.67;21.80;;;27.90;90.00;;;;;;5121133;27;20491;-73
2021/06/25 11:16:55;;;;;;;23.53;21.50;;;28.30;88.00;;;;;;5115943;27;20496;-73
2021/06/25 11:19:36;;;;;;;23.40;21.40;;;28.30;88.40;;;;;;5112064;27;20469;-73
2021/06/25 11:22:03;;;;;;;24.37;22.43;;;28.50;85.00;;;;;;5112774;27;20476;-72
2021/06/25 11:24:51;;;;;;;22.40;20.70;;;27.60;87.40;;;;;;5117084;27;20461;-73
2021/06/25 11:27:19;;;;;;;22.80;21.20;;;26.80;87.80;;;;;;5111392;27;20464;-73
2021/06/25 11:29:49;;;;;;;22.80;21.13;;;26.80;88.20;;;;;;5117488;28;20828;-73
2021/06/25 11:32:28;;;;;;;22.67;20.57;;;27.40;86.50;;;;;;5114774;28;20456;-74
2021/06/25 11:34:56;;;;;;;23.00;21.00;;;27.00;86.00;;;;;;5112605;28;20489;-73
2021/06/25 11:37:55;;;;;;;21.80;20.10;;;26.80;89.80;;;;;;5111291;28;20456;-75
2021/06/25 11:40:46;;;;;;;22.07;20.37;;;26.30;89.80;;;;;;5111334;28;20452;-73
2021/06/25 11:43:16;;;;;;;22.70;21.00;;;26.10;90.00;;;;;;5112869;28;20488;-73
2021/06/25 11:45:49;;;;;;;24.53;22.60;;;25.30;90.80;;;;;;5115345;28;20963;-73
2021/06/25 11:48:16;;;;;;;24.57;22.57;;;25.30;90.90;;;;;;5099071;28;20461;-74
2021/06/25 11:50:43;;;;;;;24.10;22.30;;;25.70;90.40;;;;;;5111022;28;20465;-72
2021/06/25 11:53:11;;;;;;;24.07;21.90;;;25.80;90.20;;;;;;5121580;28;20452;-72
2021/06/25 11:55:43;;;;;;;23.13;21.33;;;26.10;89.80;;;;;;5112366;27;20483;-73
2021/06/25 11:58:20;;;;;;;23.13;21.33;;;26.30;91.00;;;;;;5115984;27;20456;-73
2021/06/25 12:00:47;;;;;;;22.83;21.13;;;26.60;90.60;;;;;;5114289;28;20466;-73
2021/06/25 12:03:14;;;;;;;23.60;21.90;;;26.90;88.80;;;;;;5112745;28;20473;-72
2021/06/25 12:05:45;;;;;;;23.93;22.23;;;27.40;88.80;;;;;;5110521;28;20458;-73
2021/06/25 12:08:14;;;;;;;22.90;21.20;;;27.20;87.80;;;;;;5113085;28;20557;-74
2021/06/25 12:10:42;;;;;;;23.77;22.00;;;28.20;85.60;;;;;;5118491;28;20915;-74
2021/06/25 12:13:11;;;;;;;22.40;20.97;;;28.80;85.00;;;;;;5117843;27;20458;-73
2021/06/25 12:15:46;;;;;;;23.87;22.17;;;28.90;82.80;;;;;;5115398;27;20544;-73
2021/06/25 12:18:19;;;;;;;22.70;21.00;;;28.10;85.60;;;;;;5117069;27;20457;-73
2021/06/25 12:20:46;;;;;;;22.77;20.97;;;27.90;85.10;;;;;;5114412;27;20810;-73
2021/06/25 12:23:14;;;;;;;23.97;22.17;;;27.30;87.30;;;;;;5116249;27;20994;-72
2021/06/25 12:25:44;;;;;;;22.90;21.27;;;26.70;88.50;;;;;;5118853;27;21220;-73
2021/06/25 12:28:13;;;;;;;22.33;20.53;;;25.80;90.40;;;;;;5119905;27;20488;-73
2021/06/25 12:30:43;;;;;;;23.17;21.37;;;26.20;91.40;;;;;;5120303;27;21098;-74
2021/06/25 12:33:12;;;;;;;23.33;21.57;;;26.70;91.30;;;;;;5116772;27;20465;-73
2021/06/25 12:35:42;;;;;;;22.80;21.20;;;26.60;90.30;;;;;;5119248;27;20489;-72
2021/06/25 12:38:11;;;;;;;23.50;21.80;;;26.90;89.40;;;;;;5117682;27;20453;-73
2021/06/25 12:40:43;;;;;;;24.47;22.47;;;26.50;89.80;;;;;;5117253;27;20979;-73
2021/06/25 12:43:11;;;;;;;22.63;21.13;;;27.10;89.00;;;;;;5125548;27;20510;-74
2021/06/25 12:45:44;;;;;;;21.90;20.50;;;27.40;88.00;;;;;;5122302;27;20895;-73
2021/06/25 12:48:15;;;;;;;25.20;23.30;;;27.90;90.10;;;;;;5117803;27;20478;-73
2021/06/25 12:50:42;;;;;;;24.67;22.63;;;27.60;88.90;;;;;;5117339;27;20460;-72